Accueil
METAR-TAF:

METAR-TAF

Aéroports :

Nantes, France

Aéroport de Nantes Atlantique

latitude: 47-10N, longitude: 001-36W, altitude: 27 m

Observation

Le bulletin a été fait il y a 25 minutes, à 04:00 UTC
Vent 3 kt de nord/nord-ouest
Température 8°C
Humidité 93%
Pression 1022 hPa
Visibilité 10 km ou plus
pas de nuages en-dessous de 1500 mètres et pas de cumulonimbus.

METAR: LFRS 220400Z AUTO 34003KT CAVOK 08/07 Q1022 TEMPO 3000 BR

Heure: 06:25 (04:25 UTC)

Prévision

Le bulletin a été fait il y a 5 heures et 25 minutes, à 23:00 UTC
Prévision valable du 22 à 00 UTC au 23 à 06 UTC
Vent 5 kt de nord
Visibilité 10 km ou plus
pas de nuages en-dessous de 1500 mètres et pas de cumulonimbus.
Probabilité 30% :
Temporairement
du 22 à 03 UTC au 22 à 07 UTC
Visibilité: 3000 m
brume

TAF: LFRS 212300Z 2200/2306 35005KT CAVOK PROB30 TEMPO 2203/2207 3000 BR

Observations et prévisions météorologiques de plus de 4000 aéroports (messages METAR et TAF).

Les stations disponibles sont représentées par des disques jaunes et rouges sur la carte.

Passer la souris dessus pour voir le nom de la station.

Cliquer dessus pour voir les observations et prévisions météorologiques.

Pour changer de carte: cliquez sur les boutons verts avec une croix noire pour zoomer, sur le bouton vert avec un tiret pour effectuer un zoom arrière, ou sur les flèches vertes pour les cartes adjacentes.


METAR-TAF: